This is the latest recevied weather packets stored in our database for station/object OE-11144. If no packets are shown the sender has not sent any weather packets the latest 10 day(s).
| Time | Temp. | Humidity | Pressure | Rain* | Wind** | Luminosity | Snow |
|---|---|---|---|---|---|---|---|
| 1787872528 | 15.56° C | 93% | 1015.7 hPa | 0 mm | - | - | - |
| 1787871927 | 15.56° C | 94% | 1015.7 hPa | 0 mm | - | - | - |
| 1787870501 | 15.56° C | 91% | 1015.9 hPa | 0 mm | - | - | - |
| 1787870128 | 16.11° C | 92% | 1015.9 hPa | 0 mm | - | - | - |
| 1787869528 | 16.11° C | 92% | 1016 hPa | 0 mm | - | - | - |
| 1787868701 | 16.67° C | 91% | 1016 hPa | 0 mm | - | - | - |
| 1787868327 | 16.11° C | 90% | 1016 hPa | 0 mm | - | - | - |
| 1787867728 | 16.67° C | 90% | 1015.8 hPa | 0 mm | - | - | - |
| 1787866901 | 16.67° C | 92% | 1015.7 hPa | 0 mm | - | - | - |
| 1787866527 | 16.11° C | 92% | 1015.9 hPa | 0 mm | - | - | - |
| 1787865928 | 16.67° C | 93% | 1015.8 hPa | 0 mm | - | - | - |
| 1787865102 | 17.22° C | 90% | 1015.5 hPa | 0 mm | - | - | - |
| 1787864727 | 16.67° C | 91% | 1015.7 hPa | 0 mm | - | - | - |
| 1787864127 | 17.78° C | 89% | 1015.3 hPa | 0 mm | - | - | - |
| 1787863301 | 17.78° C | 89% | 1015.4 hPa | 0 mm | - | - | - |
| 1787862928 | 17.78° C | 88% | 1015.4 hPa | 0 mm | - | - | - |
| 1787862328 | 17.78° C | 85% | 1015.2 hPa | 0 mm | - | - | - |
| 1787861501 | 18.89° C | 82% | 1014.9 hPa | 0 mm | - | - | - |
| 1787861128 | 18.33° C | 86% | 1015.1 hPa | 0 mm | - | - | - |
| 1787860528 | 17.78° C | 90% | 1015 hPa | 0 mm | - | - | - |
| 1787859701 | 18.33° C | 88% | 1014.8 hPa | 0 mm | - | - | - |
| 1787859328 | 18.89° C | 88% | 1014.5 hPa | 0 mm | - | - | - |
| 1787858728 | 19.44° C | 86% | 1014 hPa | 0 mm | - | - | - |
| 1787857901 | 19.44° C | 82% | 1013.9 hPa | 0 mm | - | - | - |
| 1787857528 | 19.44° C | 86% | 1013.9 hPa | 0 mm | - | - | - |
* Rain latest hour (hover to see other rain measurements)
** Current wind speed in m/s (hover to see current wind gust speed)